Time;durP1;ratioP1;P1;durP2;ratioP2;P2;SDS_P1;SDS_P2;PMS_P1;PMS_P2;Temp;Humidity;BMP_temperature;BMP_pressure;BME280_temperature;BME280_humidity;BME280_pressure;Samples;Min_cycle;Max_cycle;Signal;HPM_P1;HPM_P2
2021/08/02 00:01:36;;;;;;;5.10;2.40;;;;;;;;;;5078071;28;20462;-73
2021/08/02 00:04:08;;;;;;;2.77;1.87;;;;;;;;;;5077910;28;20500;-73
2021/08/02 00:06:40;;;;;;;5.47;2.30;;;;;;;;;;5078624;28;20561;-73
2021/08/02 00:09:10;;;;;;;3.60;2.20;;;;;;;;;;5077797;28;20467;-72
2021/08/02 00:11:41;;;;;;;4.97;2.00;;;;;;;;;;5077920;28;20732;-72
2021/08/02 00:14:09;;;;;;;4.83;2.93;;;;;;;;;;5077821;28;20460;-73
2021/08/02 00:16:37;;;;;;;9.77;2.37;;;;;;;;;;5077617;28;20550;-73
2021/08/02 00:19:06;;;;;;;3.80;2.10;;;;;;;;;;5078006;28;20566;-71
2021/08/02 00:21:33;;;;;;;3.70;2.30;;;;;;;;;;5077546;28;20717;-72
2021/08/02 00:24:02;;;;;;;3.33;2.20;;;;;;;;;;5077756;28;20782;-73
2021/08/02 00:26:31;;;;;;;2.70;2.03;;;;;;;;;;5077392;28;20910;-73
2021/08/02 00:28:59;;;;;;;3.43;1.97;;;;;;;;;;5077561;28;20525;-73
2021/08/02 00:31:27;;;;;;;4.20;2.33;;;;;;;;;;5076751;28;20556;-72
2021/08/02 00:33:55;;;;;;;3.40;2.00;;;;;;;;;;5077704;28;20459;-72
2021/08/02 00:36:26;;;;;;;4.63;2.10;;;;;;;;;;5077642;28;20491;-72
2021/08/02 00:38:57;;;;;;;4.27;2.00;;;;;;;;;;5077898;28;20456;-73
2021/08/02 00:41:38;;;;;;;7.10;2.27;;;;;;;;;;5077030;28;20920;-72
2021/08/02 00:44:36;;;;;;;2.67;1.80;;;;;;;;;;5077752;28;20500;-73
2021/08/02 00:47:06;;;;;;;2.20;1.80;;;;;;;;;;5077925;28;20579;-72
2021/08/02 00:49:36;;;;;;;7.17;2.40;;;;;;;;;;5077609;28;20456;-72
2021/08/02 00:52:04;;;;;;;2.17;1.53;;;;;;;;;;5077182;28;20499;-72
2021/08/02 00:54:32;;;;;;;4.87;1.50;;;;;;;;;;5077729;28;20529;-72
2021/08/02 00:57:02;;;;;;;5.60;2.50;;;;;;;;;;5077662;28;20590;-72
2021/08/02 00:59:31;;;;;;;4.43;2.00;;;;;;;;;;5077192;28;20961;-72
2021/08/02 01:02:00;;;;;;;3.97;2.20;;;;;;;;;;5077469;28;20455;-73
2021/08/02 01:04:28;;;;;;;3.20;1.77;;;;;;;;;;5077288;28;20468;-73
2021/08/02 01:06:58;;;;;;;3.60;1.87;;;;;;;;;;5077483;28;20488;-72
2021/08/02 01:09:26;;;;;;;3.03;2.20;;;;;;;;;;5079425;28;20464;-72
2021/08/02 01:11:54;;;;;;;7.63;2.10;;;;;;;;;;5081783;28;20464;-73
2021/08/02 01:14:25;;;;;;;5.50;2.17;;;;;;;;;;5080890;28;20900;-73
2021/08/02 01:16:53;;;;;;;7.07;2.23;;;;;;;;;;5081829;28;20848;-73
2021/08/02 01:19:21;;;;;;;8.50;1.80;;;;;;;;;;5081254;28;20452;-73
2021/08/02 01:21:50;;;;;;;4.20;1.33;;;;;;;;;;5081710;28;20496;-72
2021/08/02 01:24:19;;;;;;;4.03;2.03;;;;;;;;;;5081476;28;20452;-73
2021/08/02 01:27:11;;;;;;;5.60;1.80;;;;;;;;;;5081704;28;20848;-73
2021/08/02 01:29:57;;;;;;;4.50;1.73;;;;;;;;;;5081830;28;20801;-73
2021/08/02 01:32:25;;;;;;;5.07;2.00;;;;;;;;;;5081043;28;21022;-72
2021/08/02 01:34:53;;;;;;;4.17;2.17;;;;;;;;;;5081735;28;20543;-73
2021/08/02 01:37:20;;;;;;;5.87;2.17;;;;;;;;;;5081837;28;20460;-72
2021/08/02 01:39:52;;;;;;;5.00;2.33;;;;;;;;;;5080834;28;20506;-73
2021/08/02 01:42:20;;;;;;;3.30;1.87;;;;;;;;;;5081574;28;20495;-72
2021/08/02 01:44:48;;;;;;;2.40;1.60;;;;;;;;;;5081281;28;20463;-72
2021/08/02 01:47:18;;;;;;;4.77;2.00;;;;;;;;;;5080779;28;20565;-73
2021/08/02 01:49:50;;;;;;;5.00;1.67;;;;;;;;;;5081545;28;20463;-73
2021/08/02 01:52:19;;;;;;;3.37;1.47;;;;;;;;;;5082081;28;20475;-73
2021/08/02 01:54:52;;;;;;;2.70;1.80;;;;;;;;;;5080430;28;20820;-73
2021/08/02 01:57:23;;;;;;;3.70;1.50;;;;;;;;;;5080878;28;20550;-73
2021/08/02 01:59:53;;;;;;;2.90;1.70;;;;;;;;;;5081382;28;20452;-72
2021/08/02 02:02:21;;;;;;;6.23;1.97;;;;;;;;;;5080512;28;20490;-73
2021/08/02 02:04:52;;;;;;;4.43;1.90;;;;;;;;;;5081079;28;20551;-73
2021/08/02 02:07:21;;;;;;;2.50;1.67;;;;;;;;;;5080357;28;20919;-71
2021/08/02 02:09:50;;;;;;;3.30;1.83;;;;;;;;;;5079690;28;20990;-72
2021/08/02 02:12:19;;;;;;;2.97;1.67;;;;;;;;;;5080042;28;20472;-72
2021/08/02 02:14:49;;;;;;;4.07;1.57;;;;;;;;;;5080024;28;20456;-72
2021/08/02 02:17:17;;;;;;;4.80;1.60;;;;;;;;;;5080082;28;20467;-72
2021/08/02 02:19:44;;;;;;;4.97;1.40;;;;;;;;;;5079457;28;20866;-73
2021/08/02 02:22:12;;;;;;;5.43;1.57;;;;;;;;;;5079434;28;20559;-73
2021/08/02 02:24:41;;;;;;;4.53;1.30;;;;;;;;;;5079870;28;20492;-71
2021/08/02 02:27:09;;;;;;;3.97;1.40;;;;;;;;;;5080022;28;20812;-73
2021/08/02 02:29:37;;;;;;;7.20;1.50;;;;;;;;;;5079846;28;20522;-71
2021/08/02 02:32:08;;;;;;;4.53;2.00;;;;;;;;;;5079553;28;20465;-72
2021/08/02 02:34:37;;;;;;;4.73;1.67;;;;;;;;;;5062000;28;20471;-73
2021/08/02 02:37:06;;;;;;;4.03;1.70;;;;;;;;;;5079371;28;20780;-73
2021/08/02 02:39:34;;;;;;;3.83;1.93;;;;;;;;;;5079746;28;20571;-73
2021/08/02 02:42:02;;;;;;;3.57;1.47;;;;;;;;;;5079039;28;20629;-72
2021/08/02 02:44:29;;;;;;;4.97;1.70;;;;;;;;;;5078924;28;20797;-72
2021/08/02 02:46:57;;;;;;;2.67;1.50;;;;;;;;;;5079260;28;20595;-72
2021/08/02 02:49:28;;;;;;;1.40;1.00;;;;;;;;;;5079190;28;20970;-72
2021/08/02 02:51:55;;;;;;;3.90;1.47;;;;;;;;;;5079269;28;20464;-73
2021/08/02 02:54:24;;;;;;;4.63;1.77;;;;;;;;;;5079145;28;21128;-73
2021/08/02 02:56:53;;;;;;;4.27;1.20;;;;;;;;;;5078574;28;20465;-73
2021/08/02 02:59:21;;;;;;;6.23;1.67;;;;;;;;;;5079268;28;20764;-73
2021/08/02 03:01:50;;;;;;;7.67;2.00;;;;;;;;;;5078817;28;20467;-72
2021/08/02 03:04:20;;;;;;;8.73;1.97;;;;;;;;;;5079299;28;20460;-73
2021/08/02 03:06:49;;;;;;;2.70;1.60;;;;;;;;;;5079137;28;20534;-72
2021/08/02 03:09:19;;;;;;;4.87;2.20;;;;;;;;;;5079018;28;20460;-73
2021/08/02 03:11:47;;;;;;;4.23;1.80;;;;;;;;;;5079286;28;20492;-72
2021/08/02 03:14:15;;;;;;;3.37;1.80;;;;;;;;;;5079104;28;20815;-72
2021/08/02 03:16:43;;;;;;;3.33;2.03;;;;;;;;;;5079176;28;20765;-72
2021/08/02 03:19:12;;;;;;;3.03;1.63;;;;;;;;;;5070339;28;20453;-74
2021/08/02 03:21:40;;;;;;;3.30;1.80;;;;;;;;;;5059018;28;20947;-72
2021/08/02 03:24:17;;;;;;;4.93;1.77;;;;;;;;;;5058469;28;20781;-72
2021/08/02 03:26:46;;;;;;;2.53;1.60;;;;;;;;;;5058801;28;20492;-73
2021/08/02 03:29:19;;;;;;;3.60;1.80;;;;;;;;;;5059067;28;20548;-73
2021/08/02 03:31:50;;;;;;;5.07;1.70;;;;;;;;;;5059244;28;20476;-73
2021/08/02 03:34:21;;;;;;;2.80;1.80;;;;;;;;;;5058934;28;20864;-72
2021/08/02 03:36:50;;;;;;;12.00;2.20;;;;;;;;;;5058052;28;20469;-74
2021/08/02 03:39:20;;;;;;;3.17;1.70;;;;;;;;;;5058147;28;20464;-73
2021/08/02 03:41:48;;;;;;;2.80;1.77;;;;;;;;;;5057926;28;20504;-73
2021/08/02 03:44:19;;;;;;;7.50;2.20;;;;;;;;;;5058453;28;20540;-73
2021/08/02 03:46:47;;;;;;;2.57;1.73;;;;;;;;;;5057994;28;20461;-71
2021/08/02 03:49:15;;;;;;;4.30;1.47;;;;;;;;;;5058105;28;20462;-72
2021/08/02 03:51:46;;;;;;;8.27;2.53;;;;;;;;;;5058326;28;20466;-72
2021/08/02 03:54:13;;;;;;;3.63;1.77;;;;;;;;;;5058004;28;20451;-73
2021/08/02 03:56:43;;;;;;;4.77;1.70;;;;;;;;;;5058196;28;20600;-73
2021/08/02 03:59:11;;;;;;;4.20;1.57;;;;;;;;;;5058704;28;20491;-73
2021/08/02 04:01:40;;;;;;;4.70;1.90;;;;;;;;;;5059137;28;20473;-73
2021/08/02 04:04:08;;;;;;;6.17;2.20;;;;;;;;;;5058123;28;20721;-74
2021/08/02 04:06:36;;;;;;;3.20;2.33;;;;;;;;;;5058848;28;20479;-73
2021/08/02 04:09:04;;;;;;;3.60;1.93;;;;;;;;;;5057958;28;20846;-73
2021/08/02 04:11:32;;;;;;;4.00;1.53;;;;;;;;;;5059453;28;20461;-73
2021/08/02 04:14:01;;;;;;;3.70;1.90;;;;;;;;;;5075483;28;20545;-73
2021/08/02 04:16:29;;;;;;;4.57;1.30;;;;;;;;;;5079775;28;20563;-71
2021/08/02 04:18:58;;;;;;;8.00;1.47;;;;;;;;;;5079003;28;20460;-74
2021/08/02 04:21:26;;;;;;;3.87;2.33;;;;;;;;;;5076541;28;20821;-72
2021/08/02 04:23:55;;;;;;;6.63;2.00;;;;;;;;;;5076790;28;20452;-73
2021/08/02 04:26:22;;;;;;;3.10;2.20;;;;;;;;;;5077434;28;20452;-73
2021/08/02 04:28:55;;;;;;;7.40;1.67;;;;;;;;;;5076293;28;20602;-73
2021/08/02 04:31:25;;;;;;;6.93;2.10;;;;;;;;;;5076773;28;20611;-73
2021/08/02 04:33:52;;;;;;;6.00;1.47;;;;;;;;;;5076413;28;20548;-72
2021/08/02 04:36:20;;;;;;;6.13;1.83;;;;;;;;;;5076444;28;20476;-72
2021/08/02 04:38:48;;;;;;;5.67;1.70;;;;;;;;;;5077378;28;20492;-72
2021/08/02 04:41:16;;;;;;;4.00;1.90;;;;;;;;;;5075151;28;20509;-73
2021/08/02 04:43:44;;;;;;;7.70;2.43;;;;;;;;;;5076837;28;20517;-73
2021/08/02 04:46:12;;;;;;;2.60;1.70;;;;;;;;;;5076751;28;20471;-73
2021/08/02 04:48:41;;;;;;;4.03;1.87;;;;;;;;;;5076126;28;20492;-73
2021/08/02 04:51:09;;;;;;;5.30;1.30;;;;;;;;;;5076616;28;20471;-73
2021/08/02 04:53:40;;;;;;;2.90;2.17;;;;;;;;;;5076148;28;20461;-73
2021/08/02 04:56:08;;;;;;;3.53;1.90;;;;;;;;;;5076427;28;20460;-72
2021/08/02 04:58:36;;;;;;;4.10;1.90;;;;;;;;;;5076819;28;20526;-73
2021/08/02 05:01:04;;;;;;;6.00;1.63;;;;;;;;;;5075644;28;20530;-73
2021/08/02 05:03:33;;;;;;;7.03;1.83;;;;;;;;;;5076478;28;20469;-72
2021/08/02 05:06:02;;;;;;;5.37;2.03;;;;;;;;;;5076411;28;20476;-72
2021/08/02 05:08:30;;;;;;;2.60;1.47;;;;;;;;;;5076313;28;20544;-73
2021/08/02 05:10:58;;;;;;;3.87;1.70;;;;;;;;;;5076637;28;20464;-73
2021/08/02 05:13:26;;;;;;;3.60;1.60;;;;;;;;;;5076949;28;20543;-73
2021/08/02 05:15:53;;;;;;;2.97;1.50;;;;;;;;;;5075972;28;20471;-74
2021/08/02 05:18:21;;;;;;;6.67;2.27;;;;;;;;;;5075412;28;20651;-73
2021/08/02 05:20:50;;;;;;;3.47;1.40;;;;;;;;;;5076059;28;20487;-73
2021/08/02 05:23:20;;;;;;;3.10;1.50;;;;;;;;;;5076414;28;20458;-73
2021/08/02 05:25:47;;;;;;;2.60;1.57;;;;;;;;;;5076247;28;20499;-72
2021/08/02 05:28:16;;;;;;;2.47;1.53;;;;;;;;;;5076490;28;20986;-72
2021/08/02 05:30:44;;;;;;;3.10;1.57;;;;;;;;;;5076722;28;20487;-72
2021/08/02 05:33:11;;;;;;;4.43;1.93;;;;;;;;;;5075688;28;20525;-72
2021/08/02 05:35:39;;;;;;;3.70;1.43;;;;;;;;;;5076134;28;20529;-73
2021/08/02 05:38:07;;;;;;;4.70;1.53;;;;;;;;;;5075434;28;20738;-73
2021/08/02 05:40:36;;;;;;;4.30;2.40;;;;;;;;;;5075889;28;20488;-72
2021/08/02 05:43:04;;;;;;;3.23;1.27;;;;;;;;;;5075970;28;20456;-72
2021/08/02 05:45:32;;;;;;;5.07;1.50;;;;;;;;;;5067156;28;20460;-72
2021/08/02 05:48:00;;;;;;;5.00;1.83;;;;;;;;;;5074579;28;20799;-73
2021/08/02 05:50:29;;;;;;;7.30;1.53;;;;;;;;;;5074072;28;20894;-73
2021/08/02 05:53:03;;;;;;;3.37;1.70;;;;;;;;;;5081924;28;20458;-73
2021/08/02 05:55:38;;;;;;;4.90;1.90;;;;;;;;;;5078895;28;20467;-74
2021/08/02 05:58:10;;;;;;;5.60;2.53;;;;;;;;;;5078102;28;20460;-73
2021/08/02 06:00:38;;;;;;;3.67;1.57;;;;;;;;;;5078085;28;20468;-73
2021/08/02 06:03:05;;;;;;;2.80;1.10;;;;;;;;;;5079234;28;20461;-73
2021/08/02 06:05:33;;;;;;;5.43;1.37;;;;;;;;;;5078735;28;20550;-73
2021/08/02 06:08:01;;;;;;;5.90;1.67;;;;;;;;;;5078498;28;20594;-74
2021/08/02 06:10:29;;;;;;;3.97;1.60;;;;;;;;;;5078166;28;20470;-73
2021/08/02 06:12:57;;;;;;;3.60;1.70;;;;;;;;;;5078802;28;20551;-73
2021/08/02 06:15:26;;;;;;;5.47;1.40;;;;;;;;;;5077722;28;20467;-73
2021/08/02 06:17:56;;;;;;;5.93;2.30;;;;;;;;;;5082694;28;20877;-71
2021/08/02 06:20:24;;;;;;;2.33;1.23;;;;;;;;;;5078737;28;20459;-72
2021/08/02 06:22:51;;;;;;;8.50;1.90;;;;;;;;;;5078986;28;20982;-73
2021/08/02 06:25:19;;;;;;;4.47;1.53;;;;;;;;;;5077911;28;20452;-73
2021/08/02 06:27:47;;;;;;;6.70;1.83;;;;;;;;;;5077818;28;20479;-72
2021/08/02 06:30:16;;;;;;;10.90;1.67;;;;;;;;;;5078479;28;20459;-73
2021/08/02 06:32:45;;;;;;;4.20;1.77;;;;;;;;;;5078188;28;20460;-72
2021/08/02 06:35:14;;;;;;;4.63;1.50;;;;;;;;;;5076626;28;20460;-72
2021/08/02 06:37:41;;;;;;;5.83;1.30;;;;;;;;;;5065304;28;20471;-72
2021/08/02 06:40:10;;;;;;;5.20;1.67;;;;;;;;;;5078279;28;20457;-72
2021/08/02 06:42:38;;;;;;;4.23;1.23;;;;;;;;;;5078925;28;20472;-73
2021/08/02 06:45:06;;;;;;;5.80;1.17;;;;;;;;;;5078224;28;20717;-72
2021/08/02 06:47:34;;;;;;;6.47;1.63;;;;;;;;;;5077125;28;20460;-72
2021/08/02 06:50:04;;;;;;;2.73;1.30;;;;;;;;;;5076625;28;20524;-73
2021/08/02 06:52:34;;;;;;;5.40;1.50;;;;;;;;;;5078768;28;20465;-72
2021/08/02 06:55:04;;;;;;;4.50;1.27;;;;;;;;;;5077281;28;20457;-72
2021/08/02 06:57:33;;;;;;;2.77;1.50;;;;;;;;;;5069082;28;20466;-73
2021/08/02 07:00:01;;;;;;;3.90;1.37;;;;;;;;;;5076350;28;20448;-71
2021/08/02 07:02:32;;;;;;;2.90;1.43;;;;;;;;;;5076049;28;20476;-72
2021/08/02 07:05:03;;;;;;;4.50;1.17;;;;;;;;;;5074470;28;20469;-72
2021/08/02 07:07:33;;;;;;;3.17;1.50;;;;;;;;;;5066942;28;20453;-72
2021/08/02 07:10:01;;;;;;;4.87;1.10;;;;;;;;;;5074164;28;20487;-71
2021/08/02 07:12:28;;;;;;;5.30;2.17;;;;;;;;;;5073907;28;20469;-72
2021/08/02 07:14:57;;;;;;;7.13;1.63;;;;;;;;;;5076919;28;20449;-70
2021/08/02 07:17:24;;;;;;;3.47;1.90;;;;;;;;;;5077333;28;20449;-72
2021/08/02 07:19:52;;;;;;;3.53;2.10;;;;;;;;;;5077530;28;20457;-72
2021/08/02 07:22:21;;;;;;;4.03;1.50;;;;;;;;;;5077201;28;20448;-71
2021/08/02 07:24:52;;;;;;;9.40;1.80;;;;;;;;;;5078281;28;20449;-71
2021/08/02 07:27:20;;;;;;;4.00;1.20;;;;;;;;;;5077187;28;20463;-71
2021/08/02 07:29:48;;;;;;;6.70;1.67;;;;;;;;;;5077852;28;20594;-72
2021/08/02 07:32:15;;;;;;;7.10;1.70;;;;;;;;;;5078604;28;20464;-71
2021/08/02 07:34:43;;;;;;;4.17;1.43;;;;;;;;;;5077930;28;21022;-72
2021/08/02 07:37:11;;;;;;;9.33;1.40;;;;;;;;;;5078548;28;20900;-71
2021/08/02 07:39:42;;;;;;;5.00;1.30;;;;;;;;;;5075855;28;20915;-72
2021/08/02 07:42:11;;;;;;;3.63;1.07;;;;;;;;;;5076141;28;20457;-72
2021/08/02 07:44:42;;;;;;;6.93;1.17;;;;;;;;;;5075872;28;20468;-71
2021/08/02 07:47:20;;;;;;;4.03;1.30;;;;;;;;;;5074590;28;20523;-71
2021/08/02 07:49:57;;;;;;;3.30;1.60;;;;;;;;;;5076242;28;20533;-73
2021/08/02 07:52:25;;;;;;;3.30;0.90;;;;;;;;;;5077059;28;20459;-72
2021/08/02 07:54:53;;;;;;;7.33;1.03;;;;;;;;;;5076428;28;20455;-72
2021/08/02 07:57:23;;;;;;;2.73;1.03;;;;;;;;;;5076833;28;20460;-72
2021/08/02 07:59:51;;;;;;;4.80;1.10;;;;;;;;;;5076729;28;20479;-72
2021/08/02 08:02:18;;;;;;;2.57;1.63;;;;;;;;;;5076437;28;20453;-72
2021/08/02 08:04:54;;;;;;;2.40;1.13;;;;;;;;;;5077203;28;20475;-73
2021/08/02 08:07:22;;;;;;;4.10;1.30;;;;;;;;;;5076176;28;20544;-71
2021/08/02 08:09:50;;;;;;;4.30;1.40;;;;;;;;;;5076637;28;20929;-70
2021/08/02 08:12:18;;;;;;;3.93;1.10;;;;;;;;;;5075786;28;20765;-71
2021/08/02 08:14:50;;;;;;;3.30;1.00;;;;;;;;;;5076169;28;20475;-72
2021/08/02 08:17:18;;;;;;;2.83;1.17;;;;;;;;;;5073549;28;20880;-71
2021/08/02 08:19:45;;;;;;;5.33;1.53;;;;;;;;;;5075505;28;20501;-71
2021/08/02 08:22:13;;;;;;;4.90;1.10;;;;;;;;;;5076287;28;21114;-70
2021/08/02 08:24:41;;;;;;;4.80;1.20;;;;;;;;;;5075930;28;20587;-72
2021/08/02 08:27:09;;;;;;;5.10;1.10;;;;;;;;;;5074911;28;20923;-72
2021/08/02 08:29:37;;;;;;;2.57;1.13;;;;;;;;;;5075296;28;20491;-71
2021/08/02 08:32:10;;;;;;;3.40;1.23;;;;;;;;;;5075543;28;20457;-71
2021/08/02 08:34:40;;;;;;;5.03;1.20;;;;;;;;;;5075486;28;20471;-72
2021/08/02 08:37:08;;;;;;;2.30;1.00;;;;;;;;;;5075154;28;20740;-70
2021/08/02 08:39:38;;;;;;;2.40;1.40;;;;;;;;;;5074371;28;20465;-71
2021/08/02 08:42:06;;;;;;;5.03;1.50;;;;;;;;;;5076051;28;20788;-71
2021/08/02 08:44:36;;;;;;;6.13;1.23;;;;;;;;;;5076063;28;20554;-71
2021/08/02 08:47:04;;;;;;;3.27;1.30;;;;;;;;;;5074994;28;20535;-72
2021/08/02 08:49:34;;;;;;;3.03;1.23;;;;;;;;;;5075978;28;20488;-71
2021/08/02 08:52:09;;;;;;;3.03;1.40;;;;;;;;;;5075833;28;20468;-71
2021/08/02 08:54:42;;;;;;;3.40;1.20;;;;;;;;;;5077955;28;20468;-71
2021/08/02 08:57:11;;;;;;;2.40;0.87;;;;;;;;;;5058043;28;20499;-72
2021/08/02 08:59:51;;;;;;;3.33;1.20;;;;;;;;;;5054639;28;20465;-72
2021/08/02 09:02:30;;;;;;;3.53;1.37;;;;;;;;;;5055062;28;20471;-72
2021/08/02 09:05:02;;;;;;;3.53;1.20;;;;;;;;;;5060580;28;20463;-73
2021/08/02 09:07:35;;;;;;;2.93;1.33;;;;;;;;;;5077951;28;20533;-70
2021/08/02 09:12:54;;;;;;;3.10;1.90;;;;;;;;;;5065034;28;20441;-73
2021/08/02 09:15:38;;;;;;;4.10;1.20;;;;;;;;;;5072822;28;20551;-71
2021/08/02 09:18:15;;;;;;;3.03;1.10;;;;;;;;;;5077579;28;20459;-72
2021/08/02 09:20:49;;;;;;;2.23;1.00;;;;;;;;;;5054904;28;20449;-73
2021/08/02 09:23:17;;;;;;;3.10;1.03;;;;;;;;;;5074533;28;20770;-72
2021/08/02 09:25:49;;;;;;;3.70;1.20;;;;;;;;;;5080718;28;20539;-72
2021/08/02 09:28:24;;;;;;;8.07;2.07;;;;;;;;;;5076341;28;20475;-72
2021/08/02 09:30:59;;;;;;;3.30;1.20;;;;;;;;;;5077359;28;20781;-73
2021/08/02 09:33:27;;;;;;;2.30;1.13;;;;;;;;;;5078556;28;20456;-71
2021/08/02 09:36:02;;;;;;;4.90;0.97;;;;;;;;;;5078157;28;21020;-71
2021/08/02 09:38:31;;;;;;;6.07;1.20;;;;;;;;;;5077472;28;20480;-72
2021/08/02 09:41:01;;;;;;;2.03;0.90;;;;;;;;;;5079285;28;20534;-70
2021/08/02 09:43:31;;;;;;;2.43;0.83;;;;;;;;;;5078363;28;20547;-70
2021/08/02 09:46:07;;;;;;;1.80;0.77;;;;;;;;;;5077285;28;20475;-73
2021/08/02 09:48:36;;;;;;;2.23;0.80;;;;;;;;;;5077414;28;20543;-72
2021/08/02 09:51:27;;;;;;;2.90;1.00;;;;;;;;;;5077403;28;20589;-71
2021/08/02 09:54:03;;;;;;;2.37;1.10;;;;;;;;;;5077744;28;20476;-70
2021/08/02 09:56:40;;;;;;;2.17;1.00;;;;;;;;;;5077612;28;20460;-71
2021/08/02 09:59:13;;;;;;;1.37;0.70;;;;;;;;;;5077028;28;20456;-71
2021/08/02 10:01:44;;;;;;;1.80;0.90;;;;;;;;;;5077575;28;20813;-71
2021/08/02 10:04:17;;;;;;;2.37;1.00;;;;;;;;;;5090423;28;20455;-71
2021/08/02 10:06:50;;;;;;;3.53;1.10;;;;;;;;;;5090849;28;20460;-70
2021/08/02 10:09:21;;;;;;;1.70;0.80;;;;;;;;;;5080177;28;20536;-71
2021/08/02 10:11:49;;;;;;;3.23;1.10;;;;;;;;;;5065038;28;20489;-71
2021/08/02 10:14:17;;;;;;;3.60;0.90;;;;;;;;;;5064454;28;20517;-71
2021/08/02 10:16:46;;;;;;;2.90;1.10;;;;;;;;;;5077500;28;20448;-71
2021/08/02 10:19:17;;;;;;;1.63;0.90;;;;;;;;;;5077107;28;20522;-71
2021/08/02 10:22:03;;;;;;;1.67;0.80;;;;;;;;;;5076806;28;20452;-72
2021/08/02 10:24:32;;;;;;;1.77;0.80;;;;;;;;;;5074394;28;20452;-71
2021/08/02 10:27:12;;;;;;;1.67;0.90;;;;;;;;;;5075035;28;20445;-70
2021/08/02 10:29:45;;;;;;;1.60;0.70;;;;;;;;;;5074199;28;20480;-72
2021/08/02 10:32:27;;;;;;;4.10;0.80;;;;;;;;;;5077093;28;20496;-71
2021/08/02 10:35:00;;;;;;;2.27;1.00;;;;;;;;;;5071214;28;20464;-70
2021/08/02 10:37:33;;;;;;;2.03;0.67;;;;;;;;;;5075693;28;20511;-71
2021/08/02 10:40:11;;;;;;;3.90;0.83;;;;;;;;;;5074942;28;20461;-71
2021/08/02 10:42:47;;;;;;;6.97;1.40;;;;;;;;;;5076048;28;20812;-71
2021/08/02 10:45:18;;;;;;;3.40;0.90;;;;;;;;;;5069042;28;20982;-73
2021/08/02 10:47:46;;;;;;;5.93;1.27;;;;;;;;;;5078091;28;20461;-71
2021/08/02 10:50:26;;;;;;;2.20;1.00;;;;;;;;;;5076002;28;20484;-73
2021/08/02 10:52:56;;;;;;;2.63;1.73;;;;;;;;;;5077356;28;20491;-73
2021/08/02 10:55:25;;;;;;;6.17;1.20;;;;;;;;;;5077437;28;20488;-71
2021/08/02 10:58:00;;;;;;;2.10;0.80;;;;;;;;;;5073755;28;20460;-73
2021/08/02 11:00:28;;;;;;;3.67;1.03;;;;;;;;;;5076376;28;20964;-73
2021/08/02 11:02:57;;;;;;;2.57;1.50;;;;;;;;;;5075418;28;20472;-71
2021/08/02 11:05:36;;;;;;;4.50;0.97;;;;;;;;;;5082459;28;20460;-73
2021/08/02 11:08:07;;;;;;;2.07;0.90;;;;;;;;;;5073690;28;20460;-71
2021/08/02 11:10:40;;;;;;;3.30;1.57;;;;;;;;;;5075393;28;20980;-72
2021/08/02 11:13:08;;;;;;;2.80;0.83;;;;;;;;;;5077093;28;20539;-72
2021/08/02 11:15:42;;;;;;;3.73;1.13;;;;;;;;;;5075487;28;20811;-72
2021/08/02 11:18:10;;;;;;;6.03;1.47;;;;;;;;;;5075673;28;20470;-72
2021/08/02 11:20:38;;;;;;;1.90;1.00;;;;;;;;;;5076735;28;20988;-72
2021/08/02 11:23:11;;;;;;;2.60;1.17;;;;;;;;;;5075328;28;20538;-73
2021/08/02 11:25:39;;;;;;;3.20;1.60;;;;;;;;;;5075832;28;20710;-73
2021/08/02 11:28:07;;;;;;;5.10;1.20;;;;;;;;;;5074123;28;20573;-73
2021/08/02 11:30:39;;;;;;;2.93;1.13;;;;;;;;;;5074578;28;20542;-73
2021/08/02 11:33:09;;;;;;;2.00;0.87;;;;;;;;;;5074832;28;20470;-73
2021/08/02 11:35:40;;;;;;;2.43;1.17;;;;;;;;;;5074510;28;20455;-72
2021/08/02 11:38:10;;;;;;;3.73;1.07;;;;;;;;;;5076075;28;20837;-73
2021/08/02 11:40:43;;;;;;;1.40;0.70;;;;;;;;;;5076731;28;20491;-70
2021/08/02 11:43:12;;;;;;;1.87;0.90;;;;;;;;;;5077675;28;20464;-71
2021/08/02 11:45:45;;;;;;;1.70;0.80;;;;;;;;;;5076902;28;20460;-72
2021/08/02 11:48:13;;;;;;;1.50;0.87;;;;;;;;;;5076957;28;20556;-71
2021/08/02 11:50:42;;;;;;;2.13;1.03;;;;;;;;;;5075296;28;20892;-71
2021/08/02 11:53:14;;;;;;;2.53;0.90;;;;;;;;;;5073749;28;20468;-73
2021/08/02 11:56:00;;;;;;;3.70;0.93;;;;;;;;;;5074675;28;20794;-73
2021/08/02 11:58:48;;;;;;;4.80;1.80;;;;;;;;;;5075287;28;20460;-72
2021/08/02 12:01:20;;;;;;;2.13;0.60;;;;;;;;;;5075100;28;20456;-72
2021/08/02 12:03:59;;;;;;;2.63;0.67;;;;;;;;;;5075640;28;20460;-72
2021/08/02 12:06:27;;;;;;;1.30;0.70;;;;;;;;;;5074539;28;20459;-73
2021/08/02 12:09:11;;;;;;;1.60;0.90;;;;;;;;;;5078038;28;20487;-70
2021/08/02 12:11:42;;;;;;;1.77;0.73;;;;;;;;;;5074602;28;20480;-71
2021/08/02 12:14:10;;;;;;;2.90;1.03;;;;;;;;;;5076072;28;20479;-73
2021/08/02 12:16:42;;;;;;;3.20;1.03;;;;;;;;;;5077020;28;21174;-71
2021/08/02 12:19:13;;;;;;;3.47;0.90;;;;;;;;;;5076152;28;20464;-72
2021/08/02 12:21:45;;;;;;;1.90;0.73;;;;;;;;;;5074701;28;20486;-72
2021/08/02 12:24:15;;;;;;;2.30;1.10;;;;;;;;;;5055746;28;20469;-72
2021/08/02 12:26:49;;;;;;;3.23;1.10;;;;;;;;;;5068661;28;20440;-72
2021/08/02 12:29:27;;;;;;;2.10;1.00;;;;;;;;;;5075855;28;20467;-71
2021/08/02 12:32:01;;;;;;;2.00;0.90;;;;;;;;;;5074666;28;20609;-72
2021/08/02 12:34:37;;;;;;;3.73;1.07;;;;;;;;;;5061226;28;20782;-73
2021/08/02 12:37:11;;;;;;;2.60;0.97;;;;;;;;;;5075869;28;21071;-72
2021/08/02 12:39:50;;;;;;;2.87;1.40;;;;;;;;;;5076403;28;20460;-71
2021/08/02 12:42:25;;;;;;;1.90;1.00;;;;;;;;;;5073584;28;20460;-71
2021/08/02 12:44:54;;;;;;;6.00;1.03;;;;;;;;;;5074094;28;20530;-71
2021/08/02 12:47:24;;;;;;;4.50;1.20;;;;;;;;;;5073654;28;20722;-70
2021/08/02 12:49:56;;;;;;;2.73;0.90;;;;;;;;;;5074526;28;21011;-73
2021/08/02 12:52:25;;;;;;;3.70;0.77;;;;;;;;;;5074452;28;20464;-72
2021/08/02 12:54:55;;;;;;;4.43;1.80;;;;;;;;;;5073756;28;20452;-72
2021/08/02 12:57:28;;;;;;;4.37;1.23;;;;;;;;;;5075404;28;20468;-72
2021/08/02 13:00:03;;;;;;;2.27;1.10;;;;;;;;;;5076500;28;20460;-72
2021/08/02 13:02:38;;;;;;;2.87;1.07;;;;;;;;;;5073889;28;20506;-72
2021/08/02 13:05:07;;;;;;;3.00;1.07;;;;;;;;;;5074568;28;20466;-72
2021/08/02 13:07:38;;;;;;;2.50;0.83;;;;;;;;;;5076248;28;20759;-73
2021/08/02 13:10:14;;;;;;;2.50;0.90;;;;;;;;;;5074174;28;20948;-72
2021/08/02 13:12:54;;;;;;;3.70;1.10;;;;;;;;;;5073445;28;20551;-72
2021/08/02 13:15:22;;;;;;;2.90;1.13;;;;;;;;;;5075476;28;20740;-71
2021/08/02 13:17:52;;;;;;;3.30;1.30;;;;;;;;;;5074992;28;20455;-72
2021/08/02 13:20:22;;;;;;;2.80;1.27;;;;;;;;;;5059167;28;20452;-73
2021/08/02 13:22:56;;;;;;;2.70;0.97;;;;;;;;;;5066346;28;20459;-71
2021/08/02 13:28:11;;;;;;;2.80;1.00;;;;;;;;;;5074611;28;20509;-71
2021/08/02 13:30:41;;;;;;;2.93;1.20;;;;;;;;;;5073643;28;20763;-71
2021/08/02 13:33:09;;;;;;;6.07;1.17;;;;;;;;;;5073973;28;20533;-72
2021/08/02 13:35:37;;;;;;;2.13;0.90;;;;;;;;;;5073537;28;20504;-73
2021/08/02 13:38:22;;;;;;;2.20;1.10;;;;;;;;;;5055917;28;20517;-70
2021/08/02 13:40:56;;;;;;;6.93;1.47;;;;;;;;;;5074701;28;20818;-72
2021/08/02 13:43:26;;;;;;;2.33;1.30;;;;;;;;;;5071354;28;20498;-73
2021/08/02 13:45:57;;;;;;;2.50;1.00;;;;;;;;;;5075752;28;20464;-72
2021/08/02 13:48:31;;;;;;;5.50;1.27;;;;;;;;;;5074099;28;20452;-72
2021/08/02 13:51:00;;;;;;;3.00;1.13;;;;;;;;;;5074578;28;20770;-72
2021/08/02 13:53:27;;;;;;;3.73;1.10;;;;;;;;;;5068215;28;20464;-71
2021/08/02 13:55:58;;;;;;;1.80;0.90;;;;;;;;;;5055600;28;20978;-71
2021/08/02 13:58:37;;;;;;;3.03;0.97;;;;;;;;;;5054527;28;20816;-72
2021/08/02 14:01:13;;;;;;;2.50;1.33;;;;;;;;;;5051887;28;20465;-72
2021/08/02 14:03:43;;;;;;;8.90;4.30;;;;;;;;;;5070125;28;20456;-72
2021/08/02 14:06:13;;;;;;;7.67;1.47;;;;;;;;;;5068241;28;20453;-72
2021/08/02 14:08:48;;;;;;;3.30;1.10;;;;;;;;;;5075239;28;20589;-73
2021/08/02 14:14:39;;;;;;;5.33;1.10;;;;;;;;;;5065862;28;20447;-71
2021/08/02 14:17:33;;;;;;;2.23;0.73;;;;;;;;;;5074952;28;20910;-72
2021/08/02 14:20:13;;;;;;;;;;;;;;;;;;;;;
2021/08/02 14:22:44;;;;;;;3.37;1.20;;;;;;;;;;5078209;28;20456;-71
2021/08/02 14:25:13;;;;;;;2.30;0.83;;;;;;;;;;5079187;28;20487;-72
2021/08/02 14:27:42;;;;;;;2.57;0.90;;;;;;;;;;5080126;28;20464;-72
2021/08/02 14:30:18;;;;;;;1.50;0.70;;;;;;;;;;5078275;28;20749;-72
2021/08/02 14:32:49;;;;;;;3.00;0.77;;;;;;;;;;5078615;28;20527;-72
2021/08/02 14:35:36;;;;;;;5.37;1.00;;;;;;;;;;5077247;28;20541;-72
2021/08/02 14:38:04;;;;;;;3.07;1.23;;;;;;;;;;5076854;28;20468;-71
2021/08/02 14:44:01;;;;;;;2.50;0.90;;;;;;;;;;5070797;28;20555;-69
2021/08/02 14:46:35;;;;;;;2.13;0.80;;;;;;;;;;5088699;28;20474;-71
2021/08/02 14:49:03;;;;;;;3.60;0.87;;;;;;;;;;5070278;28;20448;-72
2021/08/02 14:51:33;;;;;;;4.90;1.00;;;;;;;;;;5076946;28;20480;-72
2021/08/02 14:54:02;;;;;;;3.53;1.53;;;;;;;;;;5075279;28;20796;-71
2021/08/02 14:56:32;;;;;;;5.47;1.00;;;;;;;;;;5078698;28;20460;-71
2021/08/02 14:59:07;;;;;;;2.33;0.80;;;;;;;;;;5078039;28;20456;-71
2021/08/02 15:01:42;;;;;;;3.20;1.23;;;;;;;;;;5070250;28;20464;-71
2021/08/02 15:04:10;;;;;;;4.20;1.13;;;;;;;;;;5079776;28;20455;-72
2021/08/02 15:06:39;;;;;;;4.73;2.13;;;;;;;;;;5078402;28;20526;-71
2021/08/02 15:09:10;;;;;;;1.57;0.70;;;;;;;;;;5078633;28;20460;-70
2021/08/02 15:11:39;;;;;;;4.60;0.90;;;;;;;;;;5078636;28;20483;-70
2021/08/02 15:14:08;;;;;;;2.57;0.90;;;;;;;;;;5078640;28;20486;-71
2021/08/02 15:16:43;;;;;;;1.97;1.00;;;;;;;;;;5077767;28;20461;-70